Time;durP1;ratioP1;P1;durP2;ratioP2;P2;SDS_P1;SDS_P2;PMS_P1;PMS_P2;Temp;Humidity;BMP_temperature;BMP_pressure;BME280_temperature;BME280_humidity;BME280_pressure;Samples;Min_cycle;Max_cycle;Signal;HPM_P1;HPM_P2
2021/09/11 00:01:45;;;;;;;6.93;3.60;;;;;;;19.02;95.79;101116.50;4983618;28;20046;-71
2021/09/11 00:04:11;;;;;;;6.68;3.58;;;;;;;18.96;96.29;101122.94;4981980;28;20062;-69
2021/09/11 00:06:39;;;;;;;10.93;4.07;;;;;;;18.95;96.25;101116.81;4978122;28;20053;-71
2021/09/11 00:09:05;;;;;;;10.38;3.75;;;;;;;19.01;95.63;101114.81;4982138;28;20057;-71
2021/09/11 00:11:32;;;;;;;10.45;3.55;;;;;;;18.93;96.29;101117.81;4984660;28;20451;-71
2021/09/11 00:13:59;;;;;;;6.80;4.10;;;;;;;18.83;96.82;101117.34;4991678;28;20057;-71
2021/09/11 00:16:26;;;;;;;8.38;3.85;;;;;;;18.87;96.97;101129.47;4989955;28;20050;-71
2021/09/11 00:18:52;;;;;;;8.10;3.78;;;;;;;18.91;96.29;101115.22;4984607;28;20050;-70
2021/09/11 00:21:19;;;;;;;9.98;4.43;;;;;;;18.90;96.53;101110.00;4982750;28;20073;-71
2021/09/11 00:23:46;;;;;;;5.93;3.90;;;;;;;18.89;96.40;101116.19;4978913;28;20444;-71
2021/09/11 00:26:13;;;;;;;7.18;4.15;;;;;;;18.85;96.25;101126.03;4977667;28;20476;-71
2021/09/11 00:28:40;;;;;;;10.02;4.43;;;;;;;18.82;96.52;101123.53;4979308;28;20050;-71
2021/09/11 00:31:08;;;;;;;7.85;3.97;;;;;;;18.82;96.68;101120.91;4986068;28;20500;-71
2021/09/11 00:33:34;;;;;;;7.30;3.85;;;;;;;18.82;96.13;101126.19;4983683;28;20050;-71
2021/09/11 00:36:00;;;;;;;8.90;4.30;;;;;;;18.78;96.48;101122.00;4981632;28;20409;-70
2021/09/11 00:38:27;;;;;;;9.77;4.13;;;;;;;18.77;96.56;101120.28;4982781;28;20053;-71
2021/09/11 00:40:55;;;;;;;12.63;4.25;;;;;;;18.80;96.52;101125.44;4983862;28;20063;-71
2021/09/11 00:43:22;;;;;;;11.35;4.35;;;;;;;18.77;96.42;101122.94;4981929;28;20047;-71
2021/09/11 00:45:49;;;;;;;8.82;4.10;;;;;;;18.78;96.50;101124.63;4987034;28;20078;-71
2021/09/11 00:48:16;;;;;;;9.70;5.20;;;;;;;18.79;96.33;101124.56;4984775;28;20055;-71
2021/09/11 00:50:42;;;;;;;10.50;4.40;;;;;;;18.74;96.57;101121.28;4980760;28;20049;-71
2021/09/11 00:53:10;;;;;;;7.63;4.53;;;;;;;18.73;97.18;101126.63;4975855;28;20050;-71
2021/09/11 00:55:37;;;;;;;14.32;5.35;;;;;;;18.72;97.08;101120.50;4979792;28;20133;-72
2021/09/11 00:58:06;;;;;;;9.85;4.65;;;;;;;18.76;96.79;101126.50;4981235;28;20074;-71
2021/09/11 01:00:32;;;;;;;8.13;4.82;;;;;;;18.75;97.44;101114.22;4982588;28;20054;-71
2021/09/11 01:02:59;;;;;;;10.77;5.00;;;;;;;18.76;97.42;101122.09;4982952;28;20053;-71
2021/09/11 01:05:26;;;;;;;10.57;5.28;;;;;;;18.80;97.84;101128.06;4979738;28;20054;-71
2021/09/11 01:07:52;;;;;;;9.50;4.85;;;;;;;18.86;97.12;101132.19;4979752;28;20046;-71
2021/09/11 01:10:19;;;;;;;15.38;6.30;;;;;;;18.88;97.21;101133.81;4982059;28;20050;-71
2021/09/11 01:12:47;;;;;;;7.20;5.15;;;;;;;18.90;96.90;101131.97;4982050;28;20077;-72
2021/09/11 01:15:16;;;;;;;7.30;5.28;;;;;;;18.89;96.83;101138.16;4978586;28;20038;-71
2021/09/11 01:17:45;;;;;;;14.93;6.05;;;;;;;18.87;96.88;101133.88;4981257;28;20061;-71
2021/09/11 01:20:12;;;;;;;10.07;6.00;;;;;;;18.86;97.22;101133.03;4983208;28;20125;-70
2021/09/11 01:22:39;;;;;;;13.13;6.72;;;;;;;18.83;97.09;101134.97;4983202;28;20068;-72
2021/09/11 01:25:09;;;;;;;14.50;7.82;;;;;;;18.84;97.72;101139.31;4977422;28;20408;-71
2021/09/11 01:27:36;;;;;;;12.60;7.57;;;;;;;18.82;97.76;101141.16;4984792;28;20050;-71
2021/09/11 01:30:07;;;;;;;12.73;8.50;;;;;;;18.82;97.55;101142.00;4983346;28;20080;-71
2021/09/11 01:32:34;;;;;;;12.18;7.75;;;;;;;18.80;98.23;101142.06;4987255;28;20077;-72
2021/09/11 01:35:01;;;;;;;11.95;7.97;;;;;;;18.80;98.15;101150.00;4981688;28;20059;-71
2021/09/11 01:37:27;;;;;;;11.35;8.18;;;;;;;18.81;98.62;101145.59;4988323;28;20459;-69
2021/09/11 01:39:54;;;;;;;13.85;9.60;;;;;;;18.82;98.49;101149.06;4985073;28;20049;-70
2021/09/11 01:42:23;;;;;;;12.50;10.43;;;;;;;18.83;98.53;101148.97;4988371;28;20043;-70
2021/09/11 01:44:53;;;;;;;19.13;11.30;;;;;;;18.84;98.48;101149.84;4986164;28;20504;-71
2021/09/11 01:47:19;;;;;;;15.82;11.40;;;;;;;18.88;98.60;101152.25;4985869;28;20050;-71
2021/09/11 01:49:46;;;;;;;15.82;11.77;;;;;;;18.84;98.40;101145.41;4985119;28;20046;-71
2021/09/11 01:52:13;;;;;;;18.98;12.63;;;;;;;18.86;98.48;101148.84;4985649;28;20054;-71
2021/09/11 01:54:40;;;;;;;16.33;12.35;;;;;;;18.83;98.27;101154.25;4986203;28;20058;-71
2021/09/11 01:57:08;;;;;;;14.73;12.05;;;;;;;18.80;98.75;101155.25;4984918;28;20047;-71
2021/09/11 01:59:36;;;;;;;16.35;13.15;;;;;;;18.80;98.36;101154.41;4983065;28;20058;-71
2021/09/11 02:02:04;;;;;;;17.15;12.57;;;;;;;18.77;98.83;101144.84;4983074;28;20057;-71
2021/09/11 02:04:31;;;;;;;17.02;13.40;;;;;;;18.82;98.09;101151.69;4986378;28;20112;-71
2021/09/11 02:06:57;;;;;;;17.88;13.23;;;;;;;18.80;98.46;101149.16;4981987;28;20497;-71
2021/09/11 02:09:24;;;;;;;15.50;13.73;;;;;;;18.75;98.86;101154.63;4988987;28;20053;-71
2021/09/11 02:11:51;;;;;;;19.65;14.10;;;;;;;18.76;98.62;101139.66;4982455;28;20046;-71
2021/09/11 02:14:17;;;;;;;17.17;13.20;;;;;;;18.76;98.31;101139.66;4983013;28;20050;-72
2021/09/11 02:16:45;;;;;;;18.35;13.13;;;;;;;18.77;97.99;101144.00;4986762;28;20479;-71
2021/09/11 02:19:11;;;;;;;19.33;13.77;;;;;;;18.73;98.36;101143.31;4987721;28;20440;-71
2021/09/11 02:21:38;;;;;;;15.88;13.32;;;;;;;18.74;98.63;101146.78;4987666;28;20063;-72
2021/09/11 02:24:05;;;;;;;16.98;13.77;;;;;;;18.72;98.19;101144.22;4985272;28;20420;-72
2021/09/11 02:26:32;;;;;;;19.48;13.90;;;;;;;18.71;98.66;101154.84;4989263;28;20117;-72
2021/09/11 02:28:58;;;;;;;15.23;12.73;;;;;;;18.71;97.63;101146.94;4985591;28;20074;-71
2021/09/11 02:31:24;;;;;;;17.58;14.00;;;;;;;18.68;97.25;101154.97;4984131;28;20518;-71
2021/09/11 02:33:53;;;;;;;19.40;13.73;;;;;;;18.67;96.80;101158.53;4983617;28;20054;-71
2021/09/11 02:36:19;;;;;;;16.50;13.82;;;;;;;18.59;97.25;101165.03;4986260;28;20069;-71
2021/09/11 02:38:46;;;;;;;18.13;14.43;;;;;;;18.55;97.43;101167.88;4990528;28;20046;-71
2021/09/11 02:41:12;;;;;;;17.95;14.18;;;;;;;18.54;97.50;101163.53;4982474;28;20113;-70
2021/09/11 02:43:39;;;;;;;17.90;14.57;;;;;;;18.48;97.89;101172.56;4983423;28;20112;-70
2021/09/11 02:46:05;;;;;;;19.90;14.32;;;;;;;18.44;97.95;101177.13;4987714;28;20054;-71
2021/09/11 02:48:32;;;;;;;20.67;14.15;;;;;;;18.45;98.52;101167.44;4983516;28;20043;-71
2021/09/11 02:51:00;;;;;;;21.38;14.88;;;;;;;18.40;98.68;101167.63;4985245;28;20049;-72
2021/09/11 02:53:27;;;;;;;17.63;14.40;;;;;;;18.43;98.87;101175.41;4981917;28;20397;-71
2021/09/11 02:55:54;;;;;;;18.55;14.80;;;;;;;18.41;98.97;101177.25;4986804;28;20050;-72
2021/09/11 02:58:22;;;;;;;21.20;15.10;;;;;;;18.48;98.60;101169.94;4981832;28;20492;-72
2021/09/11 03:00:49;;;;;;;22.40;14.93;;;;;;;18.44;98.57;101176.25;4987090;28;20058;-71
2021/09/11 03:03:16;;;;;;;20.08;14.15;;;;;;;18.42;99.15;101173.69;4986202;28;20070;-71
2021/09/11 03:05:43;;;;;;;22.52;14.55;;;;;;;18.45;98.92;101170.94;4989568;28;20089;-71
2021/09/11 03:08:10;;;;;;;19.55;15.30;;;;;;;18.47;98.89;101178.75;4988653;28;20046;-71
2021/09/11 03:10:37;;;;;;;21.38;16.70;;;;;;;18.46;98.96;101184.94;4983815;28;20045;-72
2021/09/11 03:13:03;;;;;;;21.23;15.75;;;;;;;18.44;99.13;101176.25;4979327;28;20727;-71
2021/09/11 03:15:30;;;;;;;22.17;15.90;;;;;;;18.40;99.15;101174.69;4982941;28;20074;-71
2021/09/11 03:17:56;;;;;;;25.45;16.75;;;;;;;18.31;99.37;101183.84;4984301;28;20169;-71
2021/09/11 03:20:23;;;;;;;20.92;16.08;;;;;;;18.29;99.36;101183.94;4986045;28;20049;-71
2021/09/11 03:22:49;;;;;;;23.30;16.73;;;;;;;18.25;99.54;101184.13;4984364;28;20050;-71
2021/09/11 03:25:17;;;;;;;26.95;17.45;;;;;;;18.21;99.17;101183.44;4982928;28;20062;-71
2021/09/11 03:27:44;;;;;;;22.15;16.17;;;;;;;18.16;99.14;101180.13;4983347;28;20053;-71
2021/09/11 03:30:11;;;;;;;23.38;18.05;;;;;;;18.18;98.80;101173.03;4988658;28;20042;-71
2021/09/11 03:32:37;;;;;;;24.90;17.63;;;;;;;18.11;98.86;101174.22;4986303;28;20053;-71
2021/09/11 03:35:04;;;;;;;23.42;17.20;;;;;;;18.08;98.58;101174.34;4982807;28;20045;-71
2021/09/11 03:37:31;;;;;;;20.40;16.88;;;;;;;18.05;98.19;101171.84;4982668;28;20480;-71
2021/09/11 03:39:57;;;;;;;28.20;18.25;;;;;;;18.04;98.29;101173.63;4984101;28;20493;-72
2021/09/11 03:42:25;;;;;;;22.63;17.00;;;;;;;17.96;98.50;101173.94;4984968;28;20050;-71
2021/09/11 03:44:51;;;;;;;25.55;17.85;;;;;;;17.94;98.55;101175.75;4980891;28;20061;-71
2021/09/11 03:47:18;;;;;;;23.30;17.25;;;;;;;17.95;98.06;101168.75;4982715;28;20043;-71
2021/09/11 03:49:44;;;;;;;25.20;17.35;;;;;;;17.93;97.67;101175.84;4985748;28;20435;-71
2021/09/11 03:52:11;;;;;;;23.90;16.98;;;;;;;17.90;97.54;101187.34;4982371;28;20046;-70
2021/09/11 03:54:37;;;;;;;23.65;16.92;;;;;;;17.91;97.24;101185.56;4983812;28;20531;-72
2021/09/11 03:57:04;;;;;;;24.75;17.27;;;;;;;17.83;97.48;101183.25;4980883;28;20045;-71
2021/09/11 03:59:32;;;;;;;24.50;17.23;;;;;;;17.79;97.29;101193.06;4986738;28;20450;-71
2021/09/11 04:01:58;;;;;;;23.67;17.17;;;;;;;17.71;97.63;101203.94;4978121;28;20198;-71
2021/09/11 04:04:25;;;;;;;25.17;16.90;;;;;;;17.69;97.81;101197.00;4984208;28;20046;-71
2021/09/11 04:06:51;;;;;;;22.80;17.05;;;;;;;17.70;98.31;101203.97;4983350;28;20105;-71
2021/09/11 04:09:18;;;;;;;22.17;15.93;;;;;;;17.65;97.75;101201.53;4987114;28;20069;-71
2021/09/11 04:11:44;;;;;;;26.23;16.40;;;;;;;17.63;97.68;101203.38;4984090;28;20063;-71
2021/09/11 04:14:11;;;;;;;20.75;14.13;;;;;;;17.62;97.05;101208.69;4986558;28;20058;-71
2021/09/11 04:16:39;;;;;;;18.80;15.20;;;;;;;17.53;97.11;101202.03;4983445;28;20039;-70
2021/09/11 04:19:06;;;;;;;21.45;14.35;;;;;;;17.53;97.44;101202.03;4985069;28;20057;-71
2021/09/11 04:21:32;;;;;;;19.23;14.27;;;;;;;17.56;97.15;101207.19;4987119;28;20046;-71
2021/09/11 04:24:03;;;;;;;18.65;13.00;;;;;;;17.58;96.12;101207.97;4985826;28;20054;-71
2021/09/11 04:26:30;;;;;;;17.65;10.77;;;;;;;17.57;96.04;101208.88;4978688;28;20074;-71
2021/09/11 04:28:56;;;;;;;18.05;11.15;;;;;;;17.49;95.85;101211.00;4988529;28;20050;-71
2021/09/11 04:31:23;;;;;;;17.27;9.60;;;;;;;17.55;94.47;101215.97;4985259;28;20058;-71
2021/09/11 04:33:51;;;;;;;14.63;7.70;;;;;;;17.48;94.25;101215.38;4980508;28;20054;-71
2021/09/11 04:36:17;;;;;;;13.48;7.82;;;;;;;17.46;93.93;101217.22;4983758;28;20046;-68
2021/09/11 04:38:44;;;;;;;16.08;8.45;;;;;;;17.42;94.09;101212.16;4980979;28;20050;-71
2021/09/11 04:41:10;;;;;;;11.20;6.63;;;;;;;17.40;93.83;101214.84;4981883;28;20719;-70
2021/09/11 04:43:37;;;;;;;11.02;7.35;;;;;;;17.39;93.39;101221.00;4986862;28;20054;-71
2021/09/11 04:46:03;;;;;;;13.18;6.70;;;;;;;17.40;93.65;101215.69;4983123;28;20050;-70
2021/09/11 04:48:30;;;;;;;14.82;7.18;;;;;;;17.41;93.17;101219.19;4986826;28;20054;-71
2021/09/11 04:50:57;;;;;;;15.30;7.00;;;;;;;17.41;93.34;101219.19;4976109;28;20420;-71
2021/09/11 04:53:24;;;;;;;12.27;6.70;;;;;;;17.37;93.18;101217.56;4985138;28;21457;-71
2021/09/11 04:55:50;;;;;;;10.82;6.53;;;;;;;17.37;92.89;101217.56;4977357;28;20050;-70
2021/09/11 04:58:17;;;;;;;10.48;6.28;;;;;;;17.36;92.01;101224.63;4981691;28;20042;-71
2021/09/11 05:00:43;;;;;;;12.30;5.82;;;;;;;17.30;92.50;101217.00;4986563;28;20061;-71
2021/09/11 05:03:10;;;;;;;11.55;5.95;;;;;;;17.33;91.54;101227.38;4984129;28;20054;-69
2021/09/11 05:05:36;;;;;;;10.55;5.75;;;;;;;17.30;91.96;101231.88;4983269;28;20050;-70
2021/09/11 05:08:05;;;;;;;9.18;5.35;;;;;;;17.24;92.66;101228.59;4979578;28;20050;-69
2021/09/11 05:10:31;;;;;;;9.85;5.70;;;;;;;17.23;92.63;101245.28;4976730;28;20105;-69
2021/09/11 05:12:58;;;;;;;10.40;6.95;;;;;;;17.20;92.48;101241.94;4982221;28;20055;-70
2021/09/11 05:15:25;;;;;;;12.88;5.82;;;;;;;17.22;92.49;101240.94;4984207;28;20112;-72
2021/09/11 05:17:52;;;;;;;10.88;6.13;;;;;;;17.21;92.69;101243.66;4990873;28;20133;-68
2021/09/11 05:20:18;;;;;;;9.27;5.13;;;;;;;17.19;92.82;101243.69;4989745;28;20050;-72
2021/09/11 05:22:44;;;;;;;9.90;5.53;;;;;;;17.21;92.46;101239.22;4988135;28;20047;-72
2021/09/11 05:25:13;;;;;;;10.82;6.20;;;;;;;17.25;92.34;101245.22;4985630;28;20054;-69
2021/09/11 05:27:40;;;;;;;9.23;5.53;;;;;;;17.27;91.83;101251.28;4987223;28;20073;-70
2021/09/11 05:30:08;;;;;;;9.07;5.00;;;;;;;17.22;92.25;101242.69;4983676;28;20077;-70
2021/09/11 05:32:34;;;;;;;8.23;5.55;;;;;;;17.18;92.41;101252.47;4984157;28;20493;-68
2021/09/11 05:35:01;;;;;;;10.50;5.95;;;;;;;17.20;92.58;101249.81;4989130;28;20508;-70
2021/09/11 05:37:27;;;;;;;10.32;5.57;;;;;;;17.14;92.50;101243.03;4990836;28;20049;-71
2021/09/11 05:39:54;;;;;;;12.20;5.85;;;;;;;17.13;93.27;101240.44;4988425;28;20047;-70
2021/09/11 05:42:21;;;;;;;14.15;7.07;;;;;;;17.10;93.37;101241.41;4986231;28;20042;-71
2021/09/11 05:44:48;;;;;;;8.93;6.72;;;;;;;17.13;93.67;101245.69;4987171;28;20054;-70
2021/09/11 05:47:14;;;;;;;13.32;6.55;;;;;;;17.23;93.05;101245.28;4985915;28;20042;-70
2021/09/11 05:49:41;;;;;;;15.07;6.65;;;;;;;17.23;92.81;101242.66;4979973;28;20508;-71
2021/09/11 05:52:07;;;;;;;9.32;6.30;;;;;;;17.23;93.50;101250.53;4987040;28;20463;-71
2021/09/11 05:54:34;;;;;;;10.18;6.85;;;;;;;17.29;93.65;101238.94;4985505;28;20054;-70
2021/09/11 05:57:00;;;;;;;11.02;6.88;;;;;;;17.34;94.41;101241.38;4987243;28;20057;-70
2021/09/11 05:59:28;;;;;;;12.27;6.47;;;;;;;17.42;93.29;101246.34;4988806;28;20397;-68
2021/09/11 06:01:55;;;;;;;12.68;6.03;;;;;;;17.51;93.15;101248.59;4989215;28;20050;-70
2021/09/11 06:04:21;;;;;;;11.35;6.65;;;;;;;17.51;92.75;101252.09;4984212;28;20523;-70
2021/09/11 06:06:48;;;;;;;13.43;6.05;;;;;;;17.49;92.15;101253.91;4977814;28;20049;-69
2021/09/11 06:09:14;;;;;;;8.48;5.22;;;;;;;17.55;91.69;101253.69;4984242;28;20057;-70
2021/09/11 06:11:41;;;;;;;11.07;5.75;;;;;;;17.50;91.86;101247.72;4977722;28;20109;-70
2021/09/11 06:14:07;;;;;;;11.27;5.18;;;;;;;17.42;91.64;101255.09;4984272;28;20049;-70
2021/09/11 06:16:35;;;;;;;10.75;5.20;;;;;;;17.46;91.48;101261.94;4986294;28;20058;-70
2021/09/11 06:19:01;;;;;;;14.55;5.43;;;;;;;17.50;91.78;101265.31;4984588;28;20051;-70
2021/09/11 06:21:28;;;;;;;11.82;4.75;;;;;;;17.52;90.56;101266.94;4983405;28;20065;-70
2021/09/11 06:23:54;;;;;;;9.93;5.18;;;;;;;17.57;91.44;101269.38;4980164;28;20057;-71
2021/09/11 06:26:21;;;;;;;9.43;4.68;;;;;;;17.59;90.64;101261.44;4981349;28;20050;-71
2021/09/11 06:28:47;;;;;;;9.90;4.82;;;;;;;17.66;90.19;101265.53;4983883;28;20054;-70
2021/09/11 06:31:14;;;;;;;11.23;4.63;;;;;;;17.71;89.95;101269.72;4987089;28;20100;-70
2021/09/11 06:33:41;;;;;;;10.23;4.75;;;;;;;17.69;89.88;101271.53;4985079;28;20050;-70
2021/09/11 06:36:11;;;;;;;7.35;4.40;;;;;;;17.72;89.82;101263.50;4979290;28;20047;-70
2021/09/11 06:38:38;;;;;;;7.97;4.43;;;;;;;17.81;89.62;101271.97;4984575;28;20061;-70
2021/09/11 06:41:04;;;;;;;9.23;4.68;;;;;;;17.87;89.30;101280.44;4982184;28;20055;-71
2021/09/11 06:43:31;;;;;;;8.82;4.13;;;;;;;17.90;89.45;101276.84;4988100;28;20046;-71
2021/09/11 06:45:57;;;;;;;9.88;4.63;;;;;;;17.99;89.65;101272.97;4981893;28;20049;-70
2021/09/11 06:48:24;;;;;;;8.55;4.22;;;;;;;18.01;88.68;101274.66;4986071;28;20511;-70
2021/09/11 06:50:51;;;;;;;7.40;3.90;;;;;;;17.99;88.68;101273.84;4987865;28;20046;-71
2021/09/11 06:53:18;;;;;;;7.05;4.10;;;;;;;18.08;88.93;101271.75;4986184;28;20516;-69
2021/09/11 06:55:44;;;;;;;9.93;4.40;;;;;;;18.07;89.03;101272.66;4978527;28;20041;-70
2021/09/11 06:58:11;;;;;;;13.00;4.88;;;;;;;18.21;88.47;101272.06;4984705;28;20038;-70
2021/09/11 07:00:37;;;;;;;10.10;3.67;;;;;;;18.23;88.28;101263.19;4982149;28;20066;-73
2021/09/11 07:03:04;;;;;;;13.30;4.15;;;;;;;18.32;87.80;101270.69;4984355;28;20435;-70
2021/09/11 07:05:30;;;;;;;8.55;3.88;;;;;;;18.41;87.35;101276.50;4984462;28;20546;-70
2021/09/11 07:07:58;;;;;;;10.75;3.85;;;;;;;18.42;86.63;101267.66;4982414;28;20058;-70
2021/09/11 07:10:24;;;;;;;10.27;3.67;;;;;;;18.28;86.94;101266.50;4984394;28;20451;-69
2021/09/11 07:12:51;;;;;;;12.40;4.68;;;;;;;18.31;86.52;101271.63;4978277;28;20046;-70
2021/09/11 07:15:17;;;;;;;9.95;3.83;;;;;;;18.27;87.17;101272.66;4981452;28;20660;-70
2021/09/11 07:17:44;;;;;;;11.70;3.60;;;;;;;18.60;86.34;101281.78;4984743;28;20400;-71
2021/09/11 07:20:11;;;;;;;9.85;4.13;;;;;;;18.58;85.38;101284.50;4983757;28;20492;-71
2021/09/11 07:22:38;;;;;;;8.15;3.75;;;;;;;18.70;84.55;101279.63;4983366;28;20054;-71
2021/09/11 07:25:07;;;;;;;8.52;3.05;;;;;;;18.67;84.51;101279.75;4977569;28;20070;-73
2021/09/11 07:27:33;;;;;;;7.47;3.00;;;;;;;18.73;84.78;101287.38;4982126;28;20053;-71
2021/09/11 07:30:00;;;;;;;11.20;3.67;;;;;;;18.72;84.20;101288.28;4984993;28;20050;-71
2021/09/11 07:32:27;;;;;;;7.43;2.83;;;;;;;18.85;83.95;101286.81;4983446;28;20133;-71
2021/09/11 07:34:53;;;;;;;5.90;3.22;;;;;;;18.97;83.07;101297.78;4979943;28;20108;-71
2021/09/11 07:37:20;;;;;;;6.53;2.92;;;;;;;18.92;83.12;101295.31;4985483;28;20057;-69
2021/09/11 07:39:47;;;;;;;10.57;3.55;;;;;;;18.90;82.77;101297.16;4978137;28;20053;-71
2021/09/11 07:42:15;;;;;;;7.65;3.03;;;;;;;18.86;83.04;101307.00;4980714;28;20088;-70
2021/09/11 07:44:41;;;;;;;9.43;3.67;;;;;;;18.81;82.79;101309.00;4982610;28;20053;-70
2021/09/11 07:47:08;;;;;;;10.70;3.45;;;;;;;18.89;82.74;101317.41;4979241;28;20055;-70
2021/09/11 07:49:34;;;;;;;7.57;3.03;;;;;;;18.91;82.68;101320.84;4976798;28;20042;-70
2021/09/11 07:52:01;;;;;;;6.78;2.88;;;;;;;19.07;82.46;101323.63;4984616;28;20050;-69
2021/09/11 07:54:27;;;;;;;7.75;3.25;;;;;;;19.12;82.26;101326.06;4976021;28;20086;-67
2021/09/11 07:56:54;;;;;;;6.30;3.10;;;;;;;19.14;81.23;101318.94;4977740;28;21122;-67
2021/09/11 07:59:22;;;;;;;7.50;3.10;;;;;;;19.18;80.87;101328.44;4971008;28;20480;-68
2021/09/11 08:01:48;;;;;;;6.25;3.20;;;;;;;19.17;79.44;101333.75;4973585;28;24419;-69
2021/09/11 08:04:14;;;;;;;11.88;3.60;;;;;;;19.22;80.21;101329.97;4979716;28;20055;-69
2021/09/11 08:06:41;;;;;;;6.53;3.17;;;;;;;19.31;80.56;101327.88;4975214;28;20078;-68
2021/09/11 08:09:07;;;;;;;9.43;3.20;;;;;;;19.51;79.78;101332.19;4979736;28;20046;-68
2021/09/11 08:11:34;;;;;;;10.60;3.90;;;;;;;19.65;78.83;101327.13;4977449;28;20058;-70
2021/09/11 08:14:01;;;;;;;7.22;3.42;;;;;;;19.72;78.29;101332.94;4972591;28;20061;-70
2021/09/11 08:16:29;;;;;;;7.55;3.28;;;;;;;19.68;79.13;101341.97;4976548;28;20057;-71
2021/09/11 08:18:55;;;;;;;7.13;3.15;;;;;;;19.84;77.27;101345.56;4978600;28;20134;-69
2021/09/11 08:21:22;;;;;;;7.18;2.88;;;;;;;20.00;76.96;101334.28;4981881;28;21891;-71
2021/09/11 08:23:49;;;;;;;10.35;3.17;;;;;;;20.01;75.51;101334.19;4983117;28;20065;-70
2021/09/11 08:26:16;;;;;;;6.90;3.08;;;;;;;19.93;76.17;101338.13;4982078;28;20049;-68
2021/09/11 08:28:42;;;;;;;9.65;3.53;;;;;;;19.95;76.35;101341.56;4977386;28;20054;-69
2021/09/11 08:31:09;;;;;;;6.88;3.08;;;;;;;19.85;76.70;101339.38;4979639;28;20050;-71
2021/09/11 08:33:37;;;;;;;8.73;3.63;;;;;;;19.91;76.25;101330.31;4976857;28;20042;-69
2021/09/11 08:36:03;;;;;;;8.45;3.10;;;;;;;20.03;76.44;101332.34;4981471;28;20046;-69
2021/09/11 08:38:34;;;;;;;7.85;3.05;;;;;;;20.12;76.78;101335.47;4980536;28;20038;-71
2021/09/11 08:41:03;;;;;;;6.30;2.53;;;;;;;20.12;75.97;101340.75;4978824;28;20062;-69
2021/09/11 08:43:29;;;;;;;8.88;3.40;;;;;;;20.09;75.69;101336.47;4977252;28;20077;-69
2021/09/11 08:45:56;;;;;;;9.65;2.92;;;;;;;19.96;75.31;101335.34;4986775;28;20788;-68
2021/09/11 08:48:24;;;;;;;7.53;3.22;;;;;;;19.91;74.60;101343.50;4980014;28;20046;-68
2021/09/11 08:50:52;;;;;;;6.82;2.97;;;;;;;19.70;76.11;101346.22;4978635;28;20054;-68
2021/09/11 08:53:18;;;;;;;9.63;3.10;;;;;;;19.69;77.00;101348.94;4979485;28;20042;-70
2021/09/11 08:55:45;;;;;;;8.57;2.85;;;;;;;19.72;77.30;101340.84;4986911;28;20528;-69
2021/09/11 08:58:12;;;;;;;9.73;3.25;;;;;;;19.86;77.69;101349.00;4984171;28;20046;-68
2021/09/11 09:00:44;;;;;;;10.13;3.17;;;;;;;20.06;76.74;101339.25;4986846;28;20126;-69
2021/09/11 09:03:30;;;;;;;8.40;3.33;;;;;;;20.27;75.69;101341.75;4983020;28;20840;-70
2021/09/11 09:06:21;;;;;;;9.95;2.80;;;;;;;20.62;74.06;101339.06;4987899;28;20065;-69
2021/09/11 09:08:49;;;;;;;7.45;2.97;;;;;;;20.76;74.10;101344.53;4988794;28;20089;-70
2021/09/11 09:11:19;;;;;;;10.15;3.10;;;;;;;20.88;71.82;101348.31;4979455;28;20050;-68
2021/09/11 09:13:59;;;;;;;7.60;2.85;;;;;;;20.83;72.02;101347.72;4986201;28;20050;-67
2021/09/11 09:16:28;;;;;;;8.10;2.53;;;;;;;20.83;71.83;101341.56;4991979;28;20050;-68
2021/09/11 09:18:55;;;;;;;8.00;2.92;;;;;;;20.75;72.38;101344.63;4987295;28;20109;-69
2021/09/11 09:21:26;;;;;;;7.25;2.55;;;;;;;20.74;72.82;101342.91;4987985;28;20042;-69
2021/09/11 09:23:55;;;;;;;6.55;2.30;;;;;;;20.70;72.19;101350.13;4988399;28;20165;-70
2021/09/11 09:26:23;;;;;;;9.32;2.60;;;;;;;20.63;72.48;101348.72;4979947;28;20412;-69
2021/09/11 09:29:03;;;;;;;6.45;2.60;;;;;;;20.45;72.49;101342.63;4985792;28;20054;-68
2021/09/11 09:31:29;;;;;;;6.05;2.75;;;;;;;20.30;73.08;101347.75;4988111;28;20054;-68
2021/09/11 09:33:56;;;;;;;12.40;3.22;;;;;;;20.18;74.06;101353.63;4986044;28;20050;-70
2021/09/11 09:36:29;;;;;;;10.00;3.45;;;;;;;20.17;74.43;101350.16;4988538;28;20051;-69
2021/09/11 09:38:59;;;;;;;6.68;2.53;;;;;;;20.18;73.14;101345.69;4987740;28;20662;-68
2021/09/11 09:41:26;;;;;;;9.05;3.08;;;;;;;20.20;73.53;101351.78;4986244;28;20053;-69
2021/09/11 09:43:52;;;;;;;7.80;3.00;;;;;;;20.26;74.00;101356.75;4989865;28;20054;-70
2021/09/11 09:46:20;;;;;;;4.68;2.85;;;;;;;20.37;73.44;101344.78;4989076;28;20054;-70
2021/09/11 09:48:48;;;;;;;5.95;2.58;;;;;;;20.48;72.31;101345.94;4982734;28;20062;-69
2021/09/11 09:51:16;;;;;;;8.50;2.83;;;;;;;20.54;72.62;101347.44;4981798;28;20145;-70
2021/09/11 09:53:45;;;;;;;5.63;2.30;;;;;;;20.70;72.75;101350.13;4987204;28;20444;-68
2021/09/11 09:56:13;;;;;;;7.45;3.03;;;;;;;20.88;72.39;101347.47;4985604;28;20076;-71
2021/09/11 09:58:39;;;;;;;11.80;3.05;;;;;;;20.97;71.34;101349.63;4987499;28;20050;-69
2021/09/11 10:01:07;;;;;;;7.80;2.78;;;;;;;21.10;71.68;101349.81;4987485;28;20053;-68
2021/09/11 10:03:34;;;;;;;5.40;2.50;;;;;;;21.28;71.40;101345.31;4985268;28;20067;-69
2021/09/11 10:06:06;;;;;;;5.53;2.70;;;;;;;21.24;71.11;101347.28;4987617;28;20046;-68
2021/09/11 10:08:42;;;;;;;6.28;2.42;;;;;;;21.38;69.75;101348.31;4982771;28;20583;-71
2021/09/11 10:11:11;;;;;;;6.07;2.35;;;;;;;21.42;69.21;101340.13;4983968;28;20050;-68
2021/09/11 10:13:38;;;;;;;5.93;2.45;;;;;;;21.47;70.37;101341.66;4989364;28;20082;-67
2021/09/11 10:16:08;;;;;;;4.95;2.80;;;;;;;21.55;69.36;101342.09;4990491;28;20042;-68
2021/09/11 10:18:44;;;;;;;5.32;2.47;;;;;;;21.65;69.73;101350.41;4985146;28;20519;-68
2021/09/11 10:21:17;;;;;;;10.68;2.78;;;;;;;21.76;69.47;101347.16;4985096;28;20046;-69
2021/09/11 10:24:05;;;;;;;7.88;2.97;;;;;;;21.80;68.43;101344.22;4988784;28;20053;-68
2021/09/11 10:26:48;;;;;;;4.57;2.65;;;;;;;21.71;69.04;101355.34;4986239;28;20501;-69
2021/09/11 10:29:53;;;;;;;7.53;2.80;;;;;;;21.61;69.23;101343.56;4983769;28;20050;-69
2021/09/11 10:32:39;;;;;;;6.50;2.65;;;;;;;21.44;70.67;101346.19;4978534;28;20046;-72
2021/09/11 10:35:08;;;;;;;5.90;2.50;;;;;;;21.47;70.04;101341.66;4984075;28;20481;-73
2021/09/11 10:37:38;;;;;;;5.82;2.15;;;;;;;21.46;69.44;101346.09;4982057;28;20416;-75
2021/09/11 10:40:26;;;;;;;5.75;2.55;;;;;;;21.57;68.19;101341.06;4983442;28;20074;-72
2021/09/11 10:43:19;;;;;;;8.10;2.58;;;;;;;21.55;68.64;101342.09;4984541;28;20538;-69
2021/09/11 10:45:55;;;;;;;7.07;2.60;;;;;;;21.48;68.64;101338.09;4977461;28;20065;-72
2021/09/11 10:48:49;;;;;;;7.57;2.53;;;;;;;21.41;69.14;101333.09;4982874;28;20055;-72
2021/09/11 10:51:24;;;;;;;6.55;2.30;;;;;;;21.46;68.83;101329.38;4976219;28;20602;-73
2021/09/11 10:54:15;;;;;;;11.90;3.22;;;;;;;21.61;69.71;101330.34;4976243;28;20054;-70
2021/09/11 10:56:51;;;;;;;6.35;3.15;;;;;;;21.69;69.06;101331.63;4984611;28;20058;-69
2021/09/11 10:59:26;;;;;;;8.57;4.03;;;;;;;21.73;69.96;101330.47;4987675;28;20165;-70
2021/09/11 11:02:01;;;;;;;11.57;3.22;;;;;;;21.76;70.64;101331.25;4986250;28;20105;-70
2021/09/11 11:04:29;;;;;;;8.77;3.03;;;;;;;21.85;69.29;101331.59;4981052;28;20054;-69
2021/09/11 11:06:57;;;;;;;7.30;2.80;;;;;;;21.93;69.80;101323.19;4987988;28;20050;-70
2021/09/11 11:09:24;;;;;;;8.15;3.00;;;;;;;22.15;69.25;101328.09;4983818;28;20072;-70
2021/09/11 11:11:56;;;;;;;6.00;2.50;;;;;;;22.34;67.97;101327.84;4982472;28;20054;-70
2021/09/11 11:14:23;;;;;;;5.57;2.58;;;;;;;22.28;66.85;101325.56;4987022;28;20050;-66
2021/09/11 11:16:53;;;;;;;8.38;2.90;;;;;;;22.09;67.02;101328.44;4979613;28;20707;-71
2021/09/11 11:19:23;;;;;;;6.18;2.72;;;;;;;21.98;67.94;101326.44;4981302;28;20039;-69
2021/09/11 11:21:55;;;;;;;6.65;2.38;;;;;;;21.95;68.30;101331.91;4981305;28;20058;-70
2021/09/11 11:24:21;;;;;;;5.50;2.60;;;;;;;21.98;68.47;101329.09;4982852;28;20046;-70